createdAt,value
2023-03-16T00:00:57.328Z,56.86
2023-03-16T00:03:25.103Z,56.67
2023-03-16T00:05:54.688Z,56.92
2023-03-16T00:08:22.567Z,56.27
2023-03-16T00:10:50.365Z,56.69
2023-03-16T00:13:19.811Z,55.72
2023-03-16T00:15:53.794Z,55.47
2023-03-16T00:18:22.491Z,54.75
2023-03-16T00:20:55.356Z,54.19
2023-03-16T00:23:27.153Z,55.03
2023-03-16T00:25:55.528Z,54.62
2023-03-16T00:28:23.839Z,56.35
2023-03-16T00:30:58.785Z,55.51
2023-03-16T00:33:26.606Z,54.99
2023-03-16T00:36:02.142Z,54.93
2023-03-16T00:38:31.440Z,54.89
2023-03-16T00:41:00.098Z,55.13
2023-03-16T00:43:28.008Z,54.77
2023-03-16T00:46:06.520Z,54.92
2023-03-16T00:48:35.452Z,55.21
2023-03-16T00:51:04.328Z,54.88
2023-03-16T00:53:33.290Z,55.37
2023-03-16T00:56:02.980Z,55.28
2023-03-16T00:58:35.710Z,55.42
2023-03-16T01:01:05.843Z,55.46
2023-03-16T01:03:34.301Z,54.91
2023-03-16T01:06:06.174Z,54.65
2023-03-16T01:08:34.162Z,54.63
2023-03-16T01:11:04.625Z,54.36
2023-03-16T01:13:33.350Z,54.10
2023-03-16T01:16:02.953Z,53.67
2023-03-16T01:18:34.206Z,53.53
2023-03-16T01:21:03.520Z,53.37
2023-03-16T01:23:34.411Z,52.51
2023-03-16T01:26:02.419Z,52.58
2023-03-16T01:28:32.558Z,51.75
2023-03-16T01:31:03.810Z,51.67
2023-03-16T01:33:35.180Z,51.56
2023-03-16T01:36:07.939Z,51.40
2023-03-16T01:38:44.785Z,51.58
2023-03-16T01:41:13.828Z,51.25
2023-03-16T01:43:43.578Z,50.68
2023-03-16T01:46:19.322Z,49.93
2023-03-16T01:48:59.208Z,49.94
2023-03-16T01:51:32.455Z,49.68
2023-03-16T01:54:04.836Z,49.80
2023-03-16T01:56:37.085Z,49.51
2023-03-16T01:59:10.460Z,48.82
2023-03-16T02:01:38.875Z,49.12
2023-03-16T02:04:23.068Z,48.92
2023-03-16T02:06:56.101Z,48.87
2023-03-16T02:09:26.312Z,48.26
2023-03-16T02:11:56.986Z,48.45
2023-03-16T02:14:26.711Z,48.76
2023-03-16T02:16:55.794Z,49.31
2023-03-16T02:19:37.120Z,49.26
2023-03-16T02:22:09.257Z,50.24
2023-03-16T02:24:37.868Z,49.93
2023-03-16T02:27:10.309Z,50.90
2023-03-16T02:29:55.430Z,51.76
2023-03-16T02:32:25.667Z,50.80
2023-03-16T02:34:53.562Z,51.06
2023-03-16T02:37:22.288Z,50.37
2023-03-16T02:39:50.446Z,50.76
2023-03-16T02:42:22.817Z,51.12
2023-03-16T02:44:56.329Z,50.96
2023-03-16T02:47:36.752Z,51.49
2023-03-16T02:50:06.928Z,52.69
2023-03-16T02:52:35.486Z,52.73
2023-03-16T02:55:03.981Z,52.26
2023-03-16T02:57:32.569Z,52.70
2023-03-16T03:00:13.197Z,53.46
2023-03-16T03:02:42.402Z,55.07
2023-03-16T03:05:10.534Z,54.59
2023-03-16T03:07:39.043Z,54.56
2023-03-16T03:10:09.782Z,54.06
2023-03-16T03:12:38.697Z,53.38
2023-03-16T03:15:11.897Z,52.75
2023-03-16T03:17:51.147Z,52.64
2023-03-16T03:20:20.398Z,52.14
2023-03-16T03:22:52.512Z,51.59
2023-03-16T03:25:21.879Z,51.03
2023-03-16T03:27:54.381Z,51.17
2023-03-16T03:30:26.258Z,51.67
2023-03-16T03:32:54.866Z,51.66
2023-03-16T03:35:24.027Z,51.34
2023-03-16T03:37:52.191Z,50.77
2023-03-16T03:40:21.425Z,51.78
2023-03-16T03:42:55.625Z,52.01
2023-03-16T03:45:26.732Z,51.28
2023-03-16T03:47:56.186Z,51.21
2023-03-16T03:50:24.435Z,52.04
2023-03-16T03:53:00.205Z,52.29
2023-03-16T03:55:30.758Z,50.70
2023-03-16T03:57:58.572Z,50.15
2023-03-16T04:00:27.816Z,50.92
2023-03-16T04:02:55.806Z,49.94
2023-03-16T04:05:30.792Z,49.20
2023-03-16T04:07:58.784Z,49.74
2023-03-16T04:10:28.089Z,49.92
2023-03-16T04:12:57.636Z,49.30
2023-03-16T04:15:27.654Z,48.85
2023-03-16T04:18:06.472Z,48.83
2023-03-16T04:20:34.321Z,48.62
2023-03-16T04:23:02.370Z,48.50
2023-03-16T04:25:31.543Z,48.35
2023-03-16T04:28:00.229Z,48.40
2023-03-16T04:30:32.239Z,48.61
2023-03-16T04:33:18.577Z,48.95
2023-03-16T04:35:47.070Z,48.86
2023-03-16T04:38:16.760Z,48.52
2023-03-16T04:40:56.997Z,49.54
2023-03-16T04:43:28.845Z,49.95
2023-03-16T04:46:06.148Z,49.16
2023-03-16T04:48:35.180Z,49.14
2023-03-16T04:51:05.812Z,49.44
2023-03-16T04:53:37.055Z,49.50
2023-03-16T04:56:18.271Z,49.27
2023-03-16T04:58:50.074Z,49.52
2023-03-16T05:01:20.775Z,49.34
2023-03-16T05:03:50.817Z,49.07
2023-03-16T05:06:18.957Z,48.67
2023-03-16T05:08:46.815Z,48.33
2023-03-16T05:11:14.640Z,48.42
2023-03-16T05:13:52.256Z,48.50
2023-03-16T05:16:21.676Z,48.74
2023-03-16T05:18:49.596Z,48.61
2023-03-16T05:21:17.583Z,49.54
2023-03-16T05:23:58.309Z,49.77
2023-03-16T05:26:26.492Z,49.74
2023-03-16T05:28:54.787Z,49.42
2023-03-16T05:31:27.806Z,48.54
2023-03-16T05:33:59.965Z,49.41
2023-03-16T05:36:27.933Z,50.20
2023-03-16T05:39:01.703Z,51.17
2023-03-16T05:41:37.317Z,51.03
2023-03-16T05:44:24.616Z,50.75
2023-03-16T05:47:20.033Z,51.19
2023-03-16T05:49:53.290Z,51.44
2023-03-16T05:52:26.608Z,50.78
2023-03-16T05:54:56.429Z,50.09
2023-03-16T05:57:24.660Z,49.67
2023-03-16T05:59:53.776Z,50.68
2023-03-16T06:02:24.204Z,50.45
2023-03-16T06:04:52.577Z,50.74
2023-03-16T06:07:20.922Z,50.45
2023-03-16T06:09:49.346Z,49.19
2023-03-16T06:12:17.684Z,49.43
2023-03-16T06:14:45.752Z,50.46
2023-03-16T06:17:14.474Z,50.48
2023-03-16T06:19:44.684Z,49.23
2023-03-16T06:22:13.125Z,50.58
2023-03-16T06:24:41.264Z,49.47
2023-03-16T06:27:09.138Z,48.99
2023-03-16T06:29:49.188Z,48.43
2023-03-16T06:32:17.094Z,48.62
2023-03-16T06:34:46.209Z,48.23
2023-03-16T06:37:13.993Z,47.97
2023-03-16T06:39:41.910Z,48.68
2023-03-16T06:42:10.308Z,49.65
2023-03-16T06:44:39.403Z,49.31
2023-03-16T06:47:10.728Z,47.41
2023-03-16T06:49:39.043Z,47.22
2023-03-16T06:52:16.216Z,47.81
2023-03-16T06:54:44.026Z,48.34
2023-03-16T06:57:12.778Z,48.04
2023-03-16T06:59:41.286Z,47.60
2023-03-16T07:02:11.950Z,47.15
2023-03-16T07:04:39.766Z,47.23
2023-03-16T07:07:08.666Z,46.69
2023-03-16T07:09:40.372Z,46.52
2023-03-16T07:12:10.185Z,45.84
2023-03-16T07:14:38.981Z,45.73
2023-03-16T07:17:08.185Z,45.47
2023-03-16T07:19:36.220Z,46.68
2023-03-16T07:22:04.870Z,45.56
2023-03-16T07:24:37.713Z,45.30
2023-03-16T07:27:05.723Z,45.09
2023-03-16T07:29:34.312Z,45.07
2023-03-16T07:32:04.973Z,45.77
2023-03-16T07:34:37.728Z,45.14
2023-03-16T07:37:06.478Z,44.68
2023-03-16T07:39:35.056Z,45.19
2023-03-16T07:42:15.910Z,44.74
2023-03-16T07:45:02.395Z,44.62
2023-03-16T07:47:31.786Z,44.44
2023-03-16T07:50:04.048Z,44.27
2023-03-16T07:52:35.872Z,44.15
2023-03-16T07:55:05.913Z,42.99
2023-03-16T07:57:35.768Z,43.05
2023-03-16T08:00:05.306Z,42.36
2023-03-16T08:02:41.840Z,41.87
2023-03-16T08:05:12.823Z,41.35
2023-03-16T08:07:44.592Z,41.39
2023-03-16T08:10:16.581Z,41.38
2023-03-16T08:12:52.648Z,40.86
2023-03-16T08:15:21.528Z,39.73
2023-03-16T08:17:50.310Z,39.45
2023-03-16T08:20:23.908Z,39.26
2023-03-16T08:22:51.782Z,39.14
2023-03-16T08:25:24.514Z,39.20
2023-03-16T08:28:05.946Z,39.02
2023-03-16T08:30:34.151Z,38.39
2023-03-16T08:33:23.135Z,38.41
2023-03-16T08:35:52.632Z,38.74
2023-03-16T08:38:20.574Z,39.23
2023-03-16T08:40:52.157Z,40.12
2023-03-16T08:43:23.976Z,39.15
2023-03-16T08:45:53.760Z,39.73
2023-03-16T08:48:24.602Z,38.16
2023-03-16T08:50:53.879Z,37.99
2023-03-16T08:53:22.044Z,37.79
2023-03-16T08:55:49.983Z,38.00
2023-03-16T08:58:17.801Z,38.48
2023-03-16T09:00:48.258Z,38.19
2023-03-16T09:03:17.355Z,37.56
2023-03-16T09:05:45.055Z,38.18
2023-03-16T09:08:13.016Z,37.05
2023-03-16T09:10:40.785Z,37.59
2023-03-16T09:13:08.559Z,36.83
2023-03-16T09:15:36.467Z,37.70
2023-03-16T09:18:06.316Z,38.88
2023-03-16T09:20:34.217Z,38.20
2023-03-16T09:23:02.072Z,38.61
2023-03-16T09:25:30.860Z,39.26
2023-03-16T09:27:59.253Z,39.02
2023-03-16T09:30:28.264Z,39.47
2023-03-16T09:32:56.160Z,39.53
2023-03-16T09:35:25.324Z,39.68
2023-03-16T09:38:05.695Z,40.31
2023-03-16T09:40:35.871Z,39.35
2023-03-16T09:43:15.459Z,39.39
2023-03-16T09:45:49.923Z,39.23
2023-03-16T09:48:20.872Z,39.55
2023-03-16T09:50:50.928Z,38.93
2023-03-16T09:53:26.329Z,39.80
2023-03-16T09:56:31.320Z,39.64
2023-03-16T10:00:12.636Z,38.90
2023-03-16T10:03:36.647Z,38.04
2023-03-16T10:06:10.490Z,38.35
2023-03-16T10:08:42.058Z,36.20
2023-03-16T10:11:25.015Z,36.79
2023-03-16T10:13:58.579Z,36.37
2023-03-16T10:16:31.769Z,37.11
2023-03-16T10:19:03.498Z,38.29
2023-03-16T10:21:44.942Z,37.13
2023-03-16T10:24:25.255Z,37.05
2023-03-16T10:27:00.001Z,35.24
2023-03-16T10:29:31.483Z,35.87
2023-03-16T10:32:02.670Z,35.83
2023-03-16T10:34:32.159Z,34.48
2023-03-16T10:37:02.961Z,34.70
2023-03-16T10:39:42.847Z,34.83
2023-03-16T10:42:16.816Z,34.87
2023-03-16T10:44:46.053Z,34.04
2023-03-16T10:47:20.236Z,35.30
2023-03-16T10:49:51.493Z,35.40
2023-03-16T10:52:25.938Z,35.21
2023-03-16T10:54:57.481Z,34.45
2023-03-16T10:57:27.672Z,34.37
2023-03-16T10:59:57.602Z,35.79
2023-03-16T11:02:31.995Z,35.26
2023-03-16T11:05:00.865Z,36.16
2023-03-16T11:07:30.040Z,35.76
2023-03-16T11:09:58.699Z,36.47
2023-03-16T11:12:28.852Z,36.38
2023-03-16T11:15:04.708Z,36.90
2023-03-16T11:17:38.410Z,36.37
2023-03-16T11:20:17.489Z,36.44
2023-03-16T11:22:48.880Z,35.35
2023-03-16T11:25:26.783Z,35.00
2023-03-16T11:28:05.056Z,36.07
2023-03-16T11:30:39.707Z,35.77
2023-03-16T11:33:10.605Z,36.39
2023-03-16T11:35:58.343Z,36.52
2023-03-16T11:38:36.140Z,36.25
2023-03-16T11:41:09.176Z,37.17
2023-03-16T11:43:49.284Z,36.93
2023-03-16T11:46:22.664Z,36.27
2023-03-16T11:49:02.783Z,37.14
2023-03-16T11:51:43.547Z,36.16
2023-03-16T11:54:40.280Z,35.67
2023-03-16T11:57:24.720Z,34.69
2023-03-16T12:00:07.622Z,34.59
2023-03-16T12:02:51.158Z,34.29
2023-03-16T12:05:33.578Z,33.82
2023-03-16T12:08:11.082Z,34.83
2023-03-16T12:10:44.324Z,33.33
2023-03-16T12:13:30.327Z,32.86
2023-03-16T12:16:01.671Z,32.96
2023-03-16T12:18:39.738Z,32.42
2023-03-16T12:21:14.316Z,31.81
2023-03-16T12:23:50.355Z,30.96
2023-03-16T12:26:22.289Z,30.41
2023-03-16T12:28:51.850Z,29.72
2023-03-16T12:31:23.905Z,25.27
2023-03-16T12:34:10.107Z,21.92
2023-03-16T12:37:00.966Z,23.09
2023-03-16T12:39:52.865Z,24.45
2023-03-16T12:42:35.802Z,25.46
2023-03-16T12:45:07.138Z,24.40
2023-03-16T12:47:45.044Z,24.96
2023-03-16T12:50:15.478Z,25.29
2023-03-16T12:52:48.101Z,27.18
2023-03-16T12:55:17.794Z,28.79
2023-03-16T12:57:51.477Z,28.63
2023-03-16T13:00:21.549Z,28.16
2023-03-16T13:02:55.614Z,31.17
2023-03-16T13:05:32.292Z,30.18
2023-03-16T13:08:09.055Z,30.73
2023-03-16T13:10:37.519Z,30.79
2023-03-16T13:13:12.951Z,30.86
2023-03-16T13:15:41.427Z,30.94
2023-03-16T13:18:24.168Z,31.14
2023-03-16T13:20:56.431Z,32.09
2023-03-16T13:23:27.485Z,30.98
2023-03-16T13:26:05.660Z,31.44
2023-03-16T13:28:38.692Z,31.11
2023-03-16T13:31:20.329Z,31.05
2023-03-16T13:33:49.277Z,32.30
2023-03-16T13:36:18.268Z,29.94
2023-03-16T13:38:57.319Z,29.56
2023-03-16T13:41:25.218Z,29.62
2023-03-16T13:43:54.447Z,29.90
2023-03-16T13:46:28.156Z,28.22
2023-03-16T13:49:00.063Z,28.06
2023-03-16T13:51:30.913Z,26.54
2023-03-16T13:53:59.276Z,23.40
2023-03-16T13:56:29.431Z,22.79
2023-03-16T13:58:59.798Z,21.57
2023-03-16T14:01:29.364Z,21.07
2023-03-16T14:03:59.719Z,22.20
2023-03-16T14:06:31.374Z,19.25
2023-03-16T14:09:03.658Z,18.45
2023-03-16T14:11:31.888Z,17.88
2023-03-16T14:14:02.063Z,20.88
2023-03-16T14:16:32.049Z,21.31
2023-03-16T14:19:04.496Z,23.80
2023-03-16T14:21:34.959Z,21.01
2023-03-16T14:24:04.480Z,20.03
2023-03-16T14:26:41.682Z,20.95
2023-03-16T14:29:19.440Z,22.67
2023-03-16T14:31:47.322Z,20.55
2023-03-16T14:34:28.820Z,20.87
2023-03-16T14:37:07.159Z,21.24
2023-03-16T14:39:35.492Z,20.82
2023-03-16T14:42:06.794Z,21.16
2023-03-16T14:44:38.350Z,20.55
2023-03-16T14:47:07.373Z,21.21
2023-03-16T14:49:38.444Z,19.96
2023-03-16T14:52:09.322Z,20.20
2023-03-16T14:54:37.378Z,20.36
2023-03-16T14:57:06.637Z,21.79
2023-03-16T14:59:36.443Z,20.34
2023-03-16T15:02:07.825Z,23.26
2023-03-16T15:04:38.248Z,23.35
2023-03-16T15:07:22.364Z,25.54
2023-03-16T15:09:52.356Z,26.85
2023-03-16T15:12:21.567Z,26.93
2023-03-16T15:15:08.282Z,27.26
2023-03-16T15:17:36.456Z,27.37
2023-03-16T15:20:05.507Z,27.06
2023-03-16T15:22:36.809Z,27.11
2023-03-16T15:25:20.600Z,27.72
2023-03-16T15:27:49.211Z,28.55
2023-03-16T15:30:20.696Z,28.63
2023-03-16T15:32:48.683Z,27.83
2023-03-16T15:35:17.057Z,29.33
2023-03-16T15:37:45.843Z,28.90
2023-03-16T15:40:19.408Z,29.63
2023-03-16T15:42:47.258Z,28.79
2023-03-16T15:45:18.861Z,29.33
2023-03-16T15:47:46.856Z,28.51
2023-03-16T15:50:16.507Z,28.33
2023-03-16T15:52:47.556Z,28.11
2023-03-16T15:55:21.939Z,27.96
2023-03-16T15:57:51.585Z,29.00
2023-03-16T16:00:29.510Z,28.13
2023-03-16T16:02:59.242Z,30.19
2023-03-16T16:05:27.765Z,31.08
2023-03-16T16:07:56.477Z,31.26
2023-03-16T16:10:24.945Z,31.99
2023-03-16T16:12:55.074Z,32.40
2023-03-16T16:15:27.340Z,32.27
2023-03-16T16:18:19.367Z,32.26
2023-03-16T16:20:44.592Z,32.83
2023-03-16T16:23:12.716Z,33.09
2023-03-16T16:25:42.914Z,33.73
2023-03-16T16:28:16.449Z,32.92
2023-03-16T16:30:46.082Z,33.18
2023-03-16T16:33:25.673Z,33.27
2023-03-16T16:35:54.325Z,34.33
2023-03-16T16:38:23.026Z,34.74
2023-03-16T16:40:51.604Z,34.12
2023-03-16T16:43:32.695Z,34.94
2023-03-16T16:46:04.252Z,33.91
2023-03-16T16:48:34.412Z,34.09
2023-03-16T16:51:02.379Z,34.99
2023-03-16T16:53:30.671Z,34.44
2023-03-16T16:55:58.555Z,34.04
2023-03-16T16:58:27.145Z,34.65
2023-03-16T17:00:58.124Z,34.82
2023-03-16T17:03:29.849Z,35.78
2023-03-16T17:05:59.557Z,35.49
2023-03-16T17:08:27.564Z,35.73
2023-03-16T17:10:55.668Z,35.96
2023-03-16T17:13:28.473Z,35.84
2023-03-16T17:15:56.612Z,35.97
2023-03-16T17:18:24.992Z,37.48
2023-03-16T17:20:55.125Z,37.15
2023-03-16T17:23:29.276Z,37.34
2023-03-16T17:25:59.670Z,37.33
2023-03-16T17:28:30.784Z,36.96
2023-03-16T17:30:58.750Z,38.42
2023-03-16T17:33:28.522Z,38.12
2023-03-16T17:35:57.746Z,38.19
2023-03-16T17:38:26.450Z,37.88
2023-03-16T17:40:55.084Z,37.80
2023-03-16T17:43:24.179Z,39.14
2023-03-16T17:45:53.350Z,38.80
2023-03-16T17:48:24.037Z,38.90
2023-03-16T17:50:52.396Z,39.01
2023-03-16T17:53:22.676Z,39.18
2023-03-16T17:55:50.595Z,39.42
2023-03-16T17:58:26.311Z,39.17
2023-03-16T18:00:55.079Z,40.01
2023-03-16T18:03:29.323Z,39.24
2023-03-16T18:05:58.530Z,40.85
2023-03-16T18:08:29.263Z,40.60
2023-03-16T18:11:00.558Z,40.94
2023-03-16T18:13:32.534Z,41.80
2023-03-16T18:16:00.897Z,42.23
2023-03-16T18:18:31.619Z,42.50
2023-03-16T18:21:00.596Z,42.38
2023-03-16T18:23:31.698Z,42.17
2023-03-16T18:26:02.121Z,41.96
2023-03-16T18:28:30.796Z,42.43
2023-03-16T18:30:59.891Z,42.43
2023-03-16T18:33:31.269Z,43.14
2023-03-16T18:36:01.271Z,42.80
2023-03-16T18:38:33.164Z,43.20
2023-03-16T18:41:03.144Z,44.05
2023-03-16T18:43:31.277Z,44.64
2023-03-16T18:45:59.115Z,43.59
2023-03-16T18:48:29.958Z,43.67
2023-03-16T18:50:58.007Z,44.25
2023-03-16T18:53:26.048Z,44.86
2023-03-16T18:55:57.410Z,44.41
2023-03-16T18:58:25.841Z,44.85
2023-03-16T19:00:56.477Z,44.05
2023-03-16T19:03:27.812Z,44.31
2023-03-16T19:05:57.937Z,44.69
2023-03-16T19:08:27.786Z,44.99
2023-03-16T19:10:59.093Z,45.31
2023-03-16T19:13:27.769Z,44.99
2023-03-16T19:15:57.720Z,44.88
2023-03-16T19:18:26.111Z,45.10
2023-03-16T19:20:56.042Z,44.76
2023-03-16T19:23:28.371Z,45.50
2023-03-16T19:25:58.006Z,45.30
2023-03-16T19:28:33.624Z,45.45
2023-03-16T19:31:02.874Z,45.54
2023-03-16T19:33:31.095Z,45.32
2023-03-16T19:35:59.748Z,45.67
2023-03-16T19:38:27.768Z,45.81
2023-03-16T19:40:59.324Z,45.35
2023-03-16T19:43:28.745Z,44.29
2023-03-16T19:45:57.305Z,45.75
2023-03-16T19:48:32.187Z,45.58
2023-03-16T19:51:00.338Z,45.21
2023-03-16T19:53:28.381Z,44.93
2023-03-16T19:55:57.552Z,44.54
2023-03-16T19:58:32.297Z,44.51
2023-03-16T20:01:01.029Z,44.22
2023-03-16T20:03:29.287Z,44.57
2023-03-16T20:05:57.298Z,44.54
2023-03-16T20:08:26.954Z,44.93
2023-03-16T20:11:06.472Z,45.21
2023-03-16T20:13:34.981Z,45.75
2023-03-16T20:16:03.307Z,44.68
2023-03-16T20:18:31.428Z,45.06
2023-03-16T20:20:59.303Z,44.19
2023-03-16T20:23:29.215Z,44.95
2023-03-16T20:26:02.175Z,44.79
2023-03-16T20:28:35.562Z,44.73
2023-03-16T20:31:04.205Z,45.01
2023-03-16T20:33:33.285Z,44.40
2023-03-16T20:36:01.270Z,45.14
2023-03-16T20:38:30.286Z,45.53
2023-03-16T20:40:58.277Z,44.22
2023-03-16T20:43:27.815Z,44.73
2023-03-16T20:45:59.359Z,44.96
2023-03-16T20:48:27.891Z,45.29
2023-03-16T20:50:58.090Z,45.47
2023-03-16T20:53:27.103Z,45.00
2023-03-16T20:55:56.377Z,44.93
2023-03-16T20:58:26.390Z,44.95
2023-03-16T21:00:57.563Z,45.01
2023-03-16T21:03:28.536Z,44.81
2023-03-16T21:05:59.970Z,44.41
2023-03-16T21:08:28.371Z,44.13
2023-03-16T21:10:59.734Z,44.02
2023-03-16T21:13:31.365Z,43.98
2023-03-16T21:16:01.402Z,43.59
2023-03-16T21:18:31.348Z,43.52
2023-03-16T21:20:59.319Z,43.71
2023-03-16T21:23:27.184Z,42.51
2023-03-16T21:25:57.638Z,42.39
2023-03-16T21:28:27.725Z,42.74
2023-03-16T21:30:58.708Z,42.31
2023-03-16T21:33:32.905Z,42.39
2023-03-16T21:36:02.042Z,42.56
2023-03-16T21:38:31.479Z,42.52
2023-03-16T21:40:59.574Z,42.64
2023-03-16T21:43:28.021Z,41.76
2023-03-16T21:45:56.952Z,41.99
2023-03-16T21:48:26.647Z,41.22
2023-03-16T21:50:55.810Z,41.14
2023-03-16T21:53:25.041Z,40.99
2023-03-16T21:55:53.364Z,41.47
2023-03-16T21:58:22.159Z,40.83
2023-03-16T22:00:51.705Z,40.84
2023-03-16T22:03:25.865Z,40.77
2023-03-16T22:05:56.979Z,40.88
2023-03-16T22:08:27.013Z,40.90
2023-03-16T22:10:55.258Z,41.20
2023-03-16T22:13:23.939Z,41.87
2023-03-16T22:15:53.374Z,40.69
2023-03-16T22:18:29.839Z,41.51
2023-03-16T22:21:00.589Z,41.60
2023-03-16T22:23:31.757Z,41.02
2023-03-16T22:25:59.730Z,40.73
2023-03-16T22:28:28.037Z,41.53
2023-03-16T22:30:58.547Z,41.39
2023-03-16T22:33:29.863Z,41.02
2023-03-16T22:36:05.841Z,41.04
2023-03-16T22:38:33.866Z,40.96
2023-03-16T22:41:01.965Z,40.62
2023-03-16T22:43:33.096Z,40.08
2023-03-16T22:46:01.105Z,40.16
2023-03-16T22:48:31.133Z,40.64
2023-03-16T22:51:04.812Z,40.68
2023-03-16T22:53:38.771Z,40.52
2023-03-16T22:56:07.672Z,40.13
2023-03-16T22:58:38.073Z,40.27
2023-03-16T23:01:15.913Z,40.70
2023-03-16T23:03:44.142Z,40.37
2023-03-16T23:06:17.479Z,40.43
2023-03-16T23:08:45.948Z,40.52
2023-03-16T23:11:17.187Z,40.41
2023-03-16T23:13:45.047Z,40.33
2023-03-16T23:16:20.952Z,40.18
2023-03-16T23:18:49.871Z,40.33
2023-03-16T23:21:22.015Z,40.16
2023-03-16T23:24:02.662Z,40.33
2023-03-16T23:26:31.887Z,40.15
2023-03-16T23:28:59.878Z,40.18
2023-03-16T23:31:28.059Z,40.13
2023-03-16T23:33:56.080Z,40.28
2023-03-16T23:36:27.161Z,40.25
2023-03-16T23:38:55.164Z,40.05
2023-03-16T23:41:24.737Z,39.73
2023-03-16T23:43:53.523Z,39.80
2023-03-16T23:46:23.669Z,39.89
2023-03-16T23:48:53.331Z,39.96
2023-03-16T23:51:25.573Z,39.76
2023-03-16T23:53:54.815Z,39.87
2023-03-16T23:56:23.134Z,40.05
2023-03-16T23:58:50.992Z,39.53
